Time,TemperatureF,DewpointF,PressureIn,WindDirection,WindDirectionDegrees,WindSpeedMPH,WindSpeedGustMPH,Humidity,HourlyPrecipIn,Conditions,Clouds,dailyrainin,SolarRadiationWatts/m^2,SoftwareType,DateUTC
2013-05-21 00:01:00,54.0,33.0,-100.00,ESE,119,6.0,8.0,45,0.00,,,0.00,1.000000,,2013-05-21 07:01:00,
2013-05-21 00:32:00,54.0,33.0,-100.00,SE,125,5.0,8.0,45,0.00,,,0.00,1.000000,,2013-05-21 07:32:00,
2013-05-21 00:42:00,54.0,33.0,-100.00,SE,125,5.0,8.0,45,0.00,,,0.00,1.000000,,2013-05-21 07:42:00,
2013-05-21 00:52:00,54.0,33.0,-100.00,SE,125,5.0,8.0,45,0.00,,,0.00,1.000000,,2013-05-21 07:52:00,
2013-05-21 01:01:00,54.0,33.0,-100.00,SE,125,5.0,8.0,45,0.00,,,0.00,1.000000,,2013-05-21 08:01:00,
2013-05-21 02:33:00,58.0,36.0,-100.00,SSW,209,2.0,11.0,43,-99.99,,,0.00,1.000000,,2013-05-21 09:33:00,
2013-05-21 02:42:00,58.0,36.0,-100.00,SSW,209,2.0,11.0,43,-99.99,,,0.00,1.000000,,2013-05-21 09:42:00,
2013-05-21 02:53:00,58.0,36.0,-100.00,SSW,209,2.0,11.0,43,-99.99,,,0.00,1.000000,,2013-05-21 09:53:00,
2013-05-21 03:02:00,58.0,36.0,-100.00,SSW,209,2.0,11.0,43,-99.99,,,0.00,1.000000,,2013-05-21 10:02:00,
2013-05-21 03:33:00,54.0,35.0,-100.00,SE,124,1.0,7.0,49,0.00,,,-99.99,1.000000,,2013-05-21 10:33:00,
2013-05-21 03:42:00,54.0,35.0,-100.00,SE,124,1.0,7.0,49,0.00,,,-99.99,1.000000,,2013-05-21 10:42:00,
2013-05-21 03:52:00,54.0,35.0,-100.00,SE,124,1.0,7.0,49,0.00,,,-99.99,1.000000,,2013-05-21 10:52:00,
2013-05-21 04:02:00,54.0,35.0,-100.00,SE,124,1.0,7.0,49,0.00,,,-99.99,1.000000,,2013-05-21 11:02:00,
2013-05-21 04:32:00,52.0,35.0,-100.00,West,273,5.0,8.0,53,0.00,,,0.00,1.000000,,2013-05-21 11:32:00,
2013-05-21 04:42:00,52.0,35.0,-100.00,West,273,5.0,8.0,53,0.00,,,0.00,1.000000,,2013-05-21 11:42:00,
2013-05-21 04:52:00,52.0,35.0,-100.00,West,273,5.0,8.0,53,0.00,,,0.00,1.000000,,2013-05-21 11:52:00,
2013-05-21 05:01:00,52.0,35.0,-100.00,West,273,5.0,8.0,53,0.00,,,0.00,1.000000,,2013-05-21 12:01:00,
2013-05-21 05:32:00,52.0,36.0,-100.00,WSW,241,3.0,8.0,55,0.00,,,0.00,1.000000,,2013-05-21 12:32:00,
2013-05-21 05:42:00,52.0,36.0,-100.00,WSW,241,3.0,8.0,55,0.00,,,0.00,1.000000,,2013-05-21 12:42:00,
2013-05-21 05:52:00,52.0,36.0,-100.00,WSW,241,3.0,8.0,55,0.00,,,0.00,1.000000,,2013-05-21 12:52:00,
2013-05-21 06:01:00,52.0,36.0,-100.00,WSW,241,3.0,8.0,55,0.00,,,0.00,1.000000,,2013-05-21 13:01:00,
2013-05-21 06:32:00,51.0,38.0,-100.00,SSE,147,6.0,7.0,60,0.00,,,-99.99,10.000000,,2013-05-21 13:32:00,
2013-05-21 06:42:00,51.0,38.0,-100.00,SSE,147,6.0,7.0,60,0.00,,,-99.99,10.000000,,2013-05-21 13:42:00,
2013-05-21 06:52:00,51.0,38.0,-100.00,SSE,147,6.0,7.0,60,0.00,,,-99.99,10.000000,,2013-05-21 13:52:00,
2013-05-21 07:01:00,51.0,38.0,-100.00,SSE,147,6.0,7.0,60,0.00,,,-99.99,10.000000,,2013-05-21 14:01:00,
2013-05-21 07:32:00,53.0,45.0,-100.00,WNW,288,5.0,7.0,75,0.01,,,0.01,78.000000,,2013-05-21 14:32:00,
2013-05-21 07:42:00,53.0,45.0,-100.00,WNW,288,5.0,7.0,75,0.01,,,0.01,78.000000,,2013-05-21 14:42:00,
2013-05-21 07:52:00,53.0,45.0,-100.00,WNW,288,5.0,7.0,75,0.01,,,0.01,78.000000,,2013-05-21 14:52:00,
2013-05-21 08:01:00,53.0,45.0,-100.00,WNW,288,5.0,7.0,75,0.01,,,0.01,78.000000,,2013-05-21 15:01:00,
2013-05-21 09:32:00,51.0,47.0,-100.00,SW,218,5.0,9.0,86,-99.99,,,0.06,121.000000,,2013-05-21 16:32:00,
2013-05-21 09:42:00,51.0,47.0,-100.00,SW,218,5.0,9.0,86,-99.99,,,0.06,121.000000,,2013-05-21 16:42:00,
2013-05-21 09:52:00,51.0,47.0,-100.00,SW,218,5.0,9.0,86,-99.99,,,0.06,121.000000,,2013-05-21 16:52:00,
2013-05-21 10:02:00,51.0,47.0,-100.00,SW,218,5.0,9.0,86,-99.99,,,0.06,121.000000,,2013-05-21 17:02:00,
2013-05-21 10:33:00,51.0,48.0,-100.00,ESE,115,0.0,6.0,90,0.07,,,0.13,48.000000,,2013-05-21 17:33:00,
2013-05-21 10:44:00,51.0,48.0,-100.00,ESE,115,0.0,6.0,90,0.07,,,0.13,48.000000,,2013-05-21 17:44:00,
2013-05-21 10:52:00,51.0,48.0,-100.00,ESE,115,0.0,6.0,90,0.07,,,0.13,48.000000,,2013-05-21 17:52:00,
2013-05-21 11:01:00,51.0,48.0,-100.00,ESE,115,0.0,6.0,90,0.07,,,0.13,48.000000,,2013-05-21 18:01:00,
2013-05-21 11:32:00,48.0,46.0,-100.00,NNW,348,6.0,10.0,94,0.09,,,0.22,55.000000,,2013-05-21 18:32:00,
2013-05-21 11:42:00,48.0,46.0,-100.00,NNW,348,6.0,10.0,94,0.09,,,0.22,55.000000,,2013-05-21 18:42:00,
2013-05-21 11:52:00,48.0,46.0,-100.00,NNW,348,6.0,10.0,94,0.09,,,0.22,55.000000,,2013-05-21 18:52:00,
2013-05-21 12:01:00,48.0,46.0,-100.00,NNW,348,6.0,10.0,94,0.09,,,0.22,55.000000,,2013-05-21 19:01:00,
2013-05-21 12:32:00,49.0,46.0,-100.00,NNE,22,7.0,9.0,91,0.02,,,-99.99,175.000000,,2013-05-21 19:32:00,
2013-05-21 12:42:00,49.0,46.0,-100.00,NNE,22,7.0,9.0,91,0.02,,,-99.99,175.000000,,2013-05-21 19:42:00,
2013-05-21 12:52:00,49.0,46.0,-100.00,NNE,22,7.0,9.0,91,0.02,,,-99.99,175.000000,,2013-05-21 19:52:00,
2013-05-21 13:03:00,49.0,46.0,-100.00,NNE,22,7.0,9.0,91,0.02,,,-99.99,175.000000,,2013-05-21 20:03:00,
2013-05-21 13:32:00,50.0,46.0,-100.00,NE,49,5.0,9.0,87,0.00,,,0.24,295.000000,,2013-05-21 20:32:00,
2013-05-21 13:42:00,50.0,46.0,-100.00,NE,49,5.0,9.0,87,0.00,,,0.24,295.000000,,2013-05-21 20:42:00,
2013-05-21 13:52:00,50.0,46.0,-100.00,NE,49,5.0,9.0,87,0.00,,,0.24,295.000000,,2013-05-21 20:52:00,
2013-05-21 14:01:00,50.0,46.0,-100.00,NE,49,5.0,9.0,87,0.00,,,0.24,295.000000,,2013-05-21 21:01:00,
2013-05-21 14:33:00,54.0,46.0,-100.00,NE,39,6.0,9.0,75,0.00,,,-99.99,553.000000,,2013-05-21 21:33:00,
2013-05-21 14:43:00,54.0,46.0,-100.00,NE,39,6.0,9.0,75,0.00,,,-99.99,553.000000,,2013-05-21 21:43:00,
2013-05-21 14:54:00,54.0,46.0,-100.00,NE,39,6.0,9.0,75,0.00,,,-99.99,553.000000,,2013-05-21 21:54:00,
2013-05-21 15:02:00,54.0,46.0,-100.00,NE,39,6.0,9.0,75,0.00,,,-99.99,553.000000,,2013-05-21 22:02:00,
2013-05-21 15:33:00,50.0,42.0,-100.00,NNW,328,11.0,19.0,75,0.02,,,0.26,352.000000,,2013-05-21 22:33:00,
2013-05-21 15:42:00,50.0,42.0,-100.00,NNW,328,11.0,19.0,75,0.02,,,0.26,352.000000,,2013-05-21 22:42:00,
2013-05-21 15:52:00,50.0,42.0,-100.00,NNW,328,11.0,19.0,75,0.02,,,0.26,352.000000,,2013-05-21 22:52:00,
2013-05-21 16:02:00,50.0,42.0,-100.00,NNW,328,11.0,19.0,75,0.02,,,0.26,352.000000,,2013-05-21 23:02:00,
2013-05-21 16:32:00,52.0,42.0,-100.00,NNE,21,8.0,12.0,69,0.01,,,0.27,443.000000,,2013-05-21 23:32:00,
2013-05-21 16:42:00,52.0,42.0,-100.00,NNE,21,8.0,12.0,69,0.01,,,0.27,443.000000,,2013-05-21 23:42:00,
2013-05-21 16:52:00,52.0,42.0,-100.00,NNE,21,8.0,12.0,69,0.01,,,0.27,443.000000,,2013-05-21 23:52:00,
2013-05-21 17:01:00,52.0,42.0,-100.00,NNE,21,8.0,12.0,69,0.01,,,0.27,443.000000,,2013-05-22 00:01:00,
2013-05-21 17:32:00,58.0,38.0,-100.00,North,9,6.0,12.0,48,0.00,,,0.27,571.000000,,2013-05-22 00:32:00,
2013-05-21 17:42:00,58.0,38.0,-100.00,North,9,6.0,12.0,48,0.00,,,0.27,571.000000,,2013-05-22 00:42:00,
2013-05-21 17:52:00,58.0,38.0,-100.00,North,9,6.0,12.0,48,0.00,,,0.27,571.000000,,2013-05-22 00:52:00,
2013-05-21 18:01:00,58.0,38.0,-100.00,North,9,6.0,12.0,48,0.00,,,0.27,571.000000,,2013-05-22 01:01:00,
2013-05-21 18:32:00,58.0,39.0,-100.00,NNE,13,12.0,15.0,49,0.00,,,0.27,518.000000,,2013-05-22 01:32:00,
2013-05-21 18:42:00,58.0,39.0,-100.00,NNE,13,12.0,15.0,49,0.00,,,0.27,518.000000,,2013-05-22 01:42:00,
2013-05-21 18:52:00,58.0,39.0,-100.00,NNE,13,12.0,15.0,49,0.00,,,0.27,518.000000,,2013-05-22 01:52:00,
2013-05-21 19:01:00,58.0,39.0,-100.00,NNE,13,12.0,15.0,49,0.00,,,0.27,518.000000,,2013-05-22 02:01:00,
2013-05-21 19:32:00,51.0,35.0,-100.00,North,5,14.0,22.0,54,0.00,,,0.27,171.000000,,2013-05-22 02:32:00,
2013-05-21 19:42:00,51.0,35.0,-100.00,North,5,14.0,22.0,54,0.00,,,0.27,171.000000,,2013-05-22 02:42:00,
2013-05-21 19:52:00,51.0,35.0,-100.00,North,5,14.0,22.0,54,0.00,,,0.27,171.000000,,2013-05-22 02:52:00,
2013-05-21 20:01:00,51.0,35.0,-100.00,North,5,14.0,22.0,54,0.00,,,0.27,171.000000,,2013-05-22 03:01:00,
2013-05-21 20:33:00,50.0,35.0,-100.00,North,354,10.0,18.0,57,0.00,,,0.27,22.000000,,2013-05-22 03:33:00,
2013-05-21 20:43:00,50.0,35.0,-100.00,North,354,10.0,18.0,57,0.00,,,0.27,22.000000,,2013-05-22 03:43:00,
2013-05-21 20:53:00,50.0,35.0,-100.00,North,354,10.0,18.0,57,0.00,,,0.27,22.000000,,2013-05-22 03:53:00,
2013-05-21 21:03:00,50.0,35.0,-100.00,North,354,10.0,18.0,57,0.00,,,0.27,22.000000,,2013-05-22 04:03:00,
2013-05-21 21:33:00,48.0,38.0,-100.00,WSW,240,4.0,13.0,67,0.00,,,0.27,2.000000,,2013-05-22 04:33:00,
2013-05-21 21:43:00,48.0,38.0,-100.00,WSW,240,4.0,13.0,67,0.00,,,0.27,2.000000,,2013-05-22 04:43:00,
2013-05-21 21:53:00,48.0,38.0,-100.00,WSW,240,4.0,13.0,67,0.00,,,0.27,2.000000,,2013-05-22 04:53:00,
2013-05-21 22:02:00,48.0,38.0,-100.00,WSW,240,4.0,13.0,67,0.00,,,0.27,2.000000,,2013-05-22 05:02:00,
2013-05-21 22:32:00,45.0,39.0,-100.00,WSW,251,12.0,16.0,79,0.02,,,0.29,1.000000,,2013-05-22 05:32:00,
2013-05-21 22:42:00,45.0,39.0,-100.00,WSW,251,12.0,16.0,79,0.02,,,0.29,1.000000,,2013-05-22 05:42:00,
2013-05-21 22:52:00,45.0,39.0,-100.00,WSW,251,12.0,16.0,79,0.02,,,0.29,1.000000,,2013-05-22 05:52:00,
2013-05-21 23:01:00,45.0,39.0,-100.00,WSW,251,12.0,16.0,79,0.02,,,0.29,1.000000,,2013-05-22 06:01:00,
2013-05-21 23:32:00,43.0,39.0,-100.00,SW,233,9.0,17.0,87,0.04,,,0.33,1.000000,,2013-05-22 06:32:00,
2013-05-21 23:42:00,43.0,39.0,-100.00,SW,233,9.0,17.0,87,0.04,,,0.33,1.000000,,2013-05-22 06:42:00,
2013-05-21 23:52:00,43.0,39.0,-100.00,SW,233,9.0,17.0,87,0.04,,,0.33,1.000000,,2013-05-22 06:52:00,